Time;durP1;ratioP1;P1;durP2;ratioP2;P2;SDS_P1;SDS_P2;PMS_P1;PMS_P2;Temp;Humidity;BMP_temperature;BMP_pressure;BME280_temperature;BME280_humidity;BME280_pressure;Samples;Min_cycle;Max_cycle;Signal;HPM_P1;HPM_P2
2022/01/11 00:09:41;;;;;;;5.15;2.60;;;;;;;;;;20835822;28;20045;-59
2022/01/11 00:19:46;;;;;;;6.10;3.73;;;;;;;;;;20835899;28;20049;-57
2022/01/11 00:29:51;;;;;;;7.87;3.87;;;;;;;;;;20834983;28;20084;-56
2022/01/11 00:39:53;;;;;;;4.10;2.77;;;;;;;;;;20834092;28;20321;-55
2022/01/11 00:49:55;;;;;;;14.25;5.78;;;;;;;;;;20833285;28;20053;-59
2022/01/11 00:59:58;;;;;;;6.63;4.45;;;;;;;;;;20833301;28;20053;-54
2022/01/11 01:10:04;;;;;;;5.05;3.63;;;;;;;;;;20832420;28;20049;-56
2022/01/11 01:20:07;;;;;;;5.68;3.17;;;;;;;;;;20832186;28;20056;-55
2022/01/11 01:30:10;;;;;;;4.43;3.17;;;;;;;;;;20831044;28;20085;-55
2022/01/11 01:40:13;;;;;;;4.22;2.58;;;;;;;;;;20830677;28;20490;-56
2022/01/11 01:50:16;;;;;;;4.13;2.95;;;;;;;;;;20830327;28;20131;-55
2022/01/11 02:00:19;;;;;;;4.22;2.63;;;;;;;;;;20838445;28;20486;-56
2022/01/11 02:10:22;;;;;;;4.38;2.40;;;;;;;;;;20846599;28;20493;-55
2022/01/11 02:20:25;;;;;;;3.40;2.25;;;;;;;;;;20845779;28;20056;-55
2022/01/11 02:30:31;;;;;;;5.05;2.85;;;;;;;;;;20845364;28;20486;-60
2022/01/11 02:40:38;;;;;;;7.63;4.10;;;;;;;;;;20842912;28;20057;-57
2022/01/11 02:50:42;;;;;;;5.15;3.17;;;;;;;;;;20842161;28;20057;-57
2022/01/11 03:00:44;;;;;;;4.70;2.80;;;;;;;;;;20837814;28;20056;-57
2022/01/11 03:10:49;;;;;;;4.72;3.08;;;;;;;;;;20836504;28;20053;-57
2022/01/11 03:20:55;;;;;;;6.35;3.72;;;;;;;;;;20836696;28;20053;-59
2022/01/11 03:31:00;;;;;;;4.13;2.70;;;;;;;;;;20835402;28;20096;-58
2022/01/11 03:41:04;;;;;;;3.72;2.45;;;;;;;;;;20834552;28;20046;-55
2022/01/11 03:51:08;;;;;;;4.57;2.95;;;;;;;;;;20794449;28;1185074;-55
2022/01/11 04:01:11;;;;;;;4.32;2.83;;;;;;;;;;20837146;28;20061;-65
2022/01/11 04:11:14;;;;;;;6.85;4.20;;;;;;;;;;20836528;28;20056;-65
2022/01/11 04:21:17;;;;;;;6.15;3.70;;;;;;;;;;20833847;28;20360;-66
2022/01/11 04:31:19;;;;;;;5.90;3.60;;;;;;;;;;20835346;28;20048;-56
2022/01/11 04:41:22;;;;;;;6.32;4.10;;;;;;;;;;20834505;28;20053;-56
2022/01/11 04:51:29;;;;;;;4.75;3.20;;;;;;;;;;20832855;28;20093;-65
2022/01/11 05:01:32;;;;;;;5.15;3.03;;;;;;;;;;20833293;28;20522;-57
2022/01/11 05:11:34;;;;;;;6.88;3.45;;;;;;;;;;20832752;28;20042;-64
2022/01/11 05:21:36;;;;;;;8.57;4.10;;;;;;;;;;20830297;28;20053;-58
2022/01/11 05:31:38;;;;;;;3.35;2.13;;;;;;;;;;20831131;28;20052;-62
2022/01/11 05:41:40;;;;;;;4.28;2.63;;;;;;;;;;20830204;28;20052;-54
2022/01/11 05:51:42;;;;;;;4.43;2.10;;;;;;;;;;20831210;28;20132;-61
2022/01/11 06:01:45;;;;;;;3.55;2.28;;;;;;;;;;20829785;28;20056;-61
2022/01/11 06:11:47;;;;;;;4.10;2.47;;;;;;;;;;20829882;28;20052;-56
2022/01/11 06:21:49;;;;;;;2.97;2.17;;;;;;;;;;20830273;28;20054;-59
2022/01/11 06:31:51;;;;;;;3.35;2.15;;;;;;;;;;20829842;28;20095;-57
2022/01/11 06:41:53;;;;;;;5.45;2.58;;;;;;;;;;20829078;28;20053;-56
2022/01/11 06:51:56;;;;;;;5.85;2.70;;;;;;;;;;20842105;28;20056;-56
2022/01/11 07:02:04;;;;;;;3.65;3.22;;;;;;;;;;20841209;28;20061;-63
2022/01/11 07:12:26;;;;;;;3.50;2.70;;;;;;;;;;20839188;28;20050;-54
2022/01/11 07:22:47;;;;;;;6.35;3.80;;;;;;;;;;20840287;28;20049;-58
2022/01/11 07:33:01;;;;;;;5.28;3.35;;;;;;;;;;20837479;28;20055;-55
2022/01/11 07:43:06;;;;;;;;;;;;;;;;;;20838421;28;20052;-57
2022/01/11 07:53:12;;;;;;;5.78;3.22;;;;;;;;;;20835870;28;19968;-57
2022/01/11 08:03:16;;;;;;;5.90;3.05;;;;;;;;;;20838395;28;20057;-55
2022/01/11 08:13:19;;;;;;;7.53;3.63;;;;;;;;;;20836588;28;20068;-55
2022/01/11 08:23:22;;;;;;;6.72;3.42;;;;;;;;;;20835673;28;20148;-55
2022/01/11 08:33:24;;;;;;;8.32;4.15;;;;;;;;;;20834237;28;20052;-56
2022/01/11 08:43:28;;;;;;;8.23;3.85;;;;;;;;;;20833605;28;20398;-56
2022/01/11 08:53:32;;;;;;;12.48;7.10;;;;;;;;;;20832395;28;20049;-55
2022/01/11 09:03:34;;;;;;;12.68;5.07;;;;;;;;;;20832841;28;20049;-55
2022/01/11 09:13:37;;;;;;;9.55;5.47;;;;;;;;;;20831701;28;20049;-56
2022/01/11 09:23:40;;;;;;;16.33;6.50;;;;;;;;;;20830899;28;20441;-59
2022/01/11 09:33:43;;;;;;;15.15;5.95;;;;;;;;;;20830615;28;20046;-57
2022/01/11 09:43:45;;;;;;;15.43;6.38;;;;;;;;;;20829264;28;20531;-56
2022/01/11 09:53:48;;;;;;;13.63;7.95;;;;;;;;;;20830965;28;20442;-56
2022/01/11 10:04:03;;;;;;;13.13;6.47;;;;;;;;;;20829263;28;20486;-52
2022/01/11 10:14:19;;;;;;;17.03;8.47;;;;;;;;;;20829251;28;20455;-52
2022/01/11 10:24:42;;;;;;;12.68;4.78;;;;;;;;;;20872938;28;20049;-59
2022/01/11 10:34:47;;;;;;;19.33;9.82;;;;;;;;;;20926757;28;20048;-61
2022/01/11 10:45:03;;;;;;;12.50;7.88;;;;;;;;;;20925683;28;20049;-57
2022/01/11 10:55:07;;;;;;;14.60;6.55;;;;;;;;;;20923760;28;20056;-56
2022/01/11 11:05:11;;;;;;;16.00;7.82;;;;;;;;;;20915876;28;20095;-59
2022/01/11 11:15:16;;;;;;;13.13;7.03;;;;;;;;;;20874297;28;20446;-55
2022/01/11 11:25:18;;;;;;;16.13;5.97;;;;;;;;;;20897082;28;20053;-53
2022/01/11 11:35:21;;;;;;;17.17;6.57;;;;;;;;;;20920565;28;20123;-56
2022/01/11 11:45:25;;;;;;;18.02;7.55;;;;;;;;;;20919995;28;20053;-54
2022/01/11 11:55:32;;;;;;;14.82;7.88;;;;;;;;;;20875776;28;20060;-58
2022/01/11 12:05:44;;;;;;;11.80;7.20;;;;;;;;;;20919031;28;20045;-58
2022/01/11 12:15:46;;;;;;;11.45;5.70;;;;;;;;;;20917628;28;20053;-56
2022/01/11 12:25:53;;;;;;;8.20;4.93;;;;;;;;;;20917116;28;20052;-57
2022/01/11 12:36:00;;;;;;;10.07;4.93;;;;;;;;;;20915569;28;20044;-60
2022/01/11 12:46:10;;;;;;;13.55;7.15;;;;;;;;;;20914666;28;20053;-62
2022/01/11 12:56:12;;;;;;;7.63;4.80;;;;;;;;;;20914445;28;20107;-58
2022/01/11 13:06:14;;;;;;;7.85;4.03;;;;;;;;;;20914008;28;20136;-57
2022/01/11 13:16:23;;;;;;;8.02;4.32;;;;;;;;;;20914484;28;20057;-58
2022/01/11 13:26:28;;;;;;;6.65;3.30;;;;;;;;;;20913715;28;20135;-59
2022/01/11 13:36:33;;;;;;;5.18;2.75;;;;;;;;;;20911396;28;20041;-61
2022/01/11 13:46:35;;;;;;;;;;;;;;;;;;20912610;28;20045;-60
2022/01/11 13:56:43;;;;;;;16.38;7.20;;;;;;;;;;20922532;28;19999;-61
2022/01/11 14:06:52;;;;;;;9.50;6.03;;;;;;;;;;20928634;28;20059;-59
2022/01/11 14:16:55;;;;;;;15.15;6.85;;;;;;;;;;20928180;28;20128;-60
2022/01/11 14:26:58;;;;;;;8.90;5.00;;;;;;;;;;20925945;28;20577;-61
2022/01/11 14:37:20;;;;;;;9.48;5.25;;;;;;;;;;20925901;28;20187;-59
2022/01/11 14:47:21;;;;;;;12.07;6.47;;;;;;;;;;20926041;28;20099;-59
2022/01/11 14:57:23;;;;;;;8.00;4.43;;;;;;;;;;20925012;28;20469;-59
2022/01/11 15:07:26;;;;;;;9.65;5.30;;;;;;;;;;20923558;28;20083;-60
2022/01/11 15:17:30;;;;;;;9.13;5.33;;;;;;;;;;20922812;28;20053;-60
2022/01/11 15:27:32;;;;;;;8.48;4.80;;;;;;;;;;20922383;28;20044;-60
2022/01/11 15:37:35;;;;;;;8.52;4.22;;;;;;;;;;20920768;28;20052;-61
2022/01/11 15:47:36;;;;;;;7.88;4.00;;;;;;;;;;20921902;28;20049;-60
2022/01/11 15:57:39;;;;;;;5.80;3.55;;;;;;;;;;20919696;28;20049;-61
2022/01/11 16:07:41;;;;;;;8.15;3.90;;;;;;;;;;20918646;28;20060;-61
2022/01/11 16:17:43;;;;;;;6.28;3.83;;;;;;;;;;20916536;28;20044;-62
2022/01/11 16:27:48;;;;;;;9.27;4.20;;;;;;;;;;20905754;28;20040;-61
2022/01/11 16:37:51;;;;;;;3.13;1.70;;;;;;;;;;20914837;28;20377;-58
2022/01/11 16:47:54;;;;;;;2.72;1.17;;;;;;;;;;20913329;28;20051;-57
2022/01/11 16:57:57;;;;;;;3.78;1.70;;;;;;;;;;20911669;28;20091;-59
2022/01/11 17:07:59;;;;;;;5.00;2.00;;;;;;;;;;20910425;28;20080;-60
2022/01/11 17:18:02;;;;;;;6.32;3.00;;;;;;;;;;20907259;28;20448;-59
2022/01/11 17:28:05;;;;;;;2.97;1.20;;;;;;;;;;20909427;28;20114;-60
2022/01/11 17:38:09;;;;;;;4.78;1.33;;;;;;;;;;20910721;28;20049;-66
2022/01/11 17:48:13;;;;;;;2.90;1.30;;;;;;;;;;20906991;28;20492;-57
2022/01/11 17:58:15;;;;;;;3.00;1.00;;;;;;;;;;20907194;28;20103;-58
2022/01/11 18:08:17;;;;;;;2.03;1.20;;;;;;;;;;20909113;28;20509;-58
2022/01/11 18:18:19;;;;;;;4.72;2.65;;;;;;;;;;20909158;28;20048;-54
2022/01/11 18:28:22;;;;;;;7.60;3.10;;;;;;;;;;20905818;28;20527;-57
2022/01/11 18:38:24;;;;;;;6.15;2.05;;;;;;;;;;20910043;28;20055;-56
2022/01/11 18:48:27;;;;;;;4.25;2.53;;;;;;;;;;20922178;28;20048;-55
2022/01/11 18:58:29;;;;;;;9.52;4.93;;;;;;;;;;20922260;28;20053;-57
2022/01/11 19:08:33;;;;;;;5.80;2.13;;;;;;;;;;20919641;28;20049;-57
2022/01/11 19:18:36;;;;;;;3.53;1.98;;;;;;;;;;20919999;28;20042;-58
2022/01/11 19:28:39;;;;;;;2.42;1.33;;;;;;;;;;20921167;28;20477;-68
2022/01/11 19:38:41;;;;;;;2.03;1.13;;;;;;;;;;20921262;28;20049;-70
2022/01/11 19:48:43;;;;;;;1.90;1.00;;;;;;;;;;20920612;28;20049;-59
2022/01/11 19:58:45;;;;;;;3.38;1.30;;;;;;;;;;20920311;28;20053;-58
2022/01/11 20:08:48;;;;;;;5.63;1.10;;;;;;;;;;20919155;28;20458;-60
2022/01/11 20:18:50;;;;;;;2.78;1.13;;;;;;;;;;20918188;28;20045;-60
2022/01/11 20:28:53;;;;;;;1.88;0.90;;;;;;;;;;20917260;28;20190;-60
2022/01/11 20:38:55;;;;;;;2.40;1.00;;;;;;;;;;20915824;28;20053;-59
2022/01/11 20:48:58;;;;;;;1.65;1.15;;;;;;;;;;20915453;28;20053;-60
2022/01/11 20:59:00;;;;;;;2.10;1.20;;;;;;;;;;20914668;28;20049;-58
2022/01/11 21:09:01;;;;;;;2.05;1.10;;;;;;;;;;20913903;28;20049;-59
2022/01/11 21:29:25;;;;;;;1.75;1.10;;;;;;;;;;20913890;28;20049;-60
2022/01/11 21:39:28;;;;;;;2.00;1.08;;;;;;;;;;20913628;28;20052;-60
2022/01/11 21:49:33;;;;;;;2.55;1.38;;;;;;;;;;20912744;28;20045;-59
2022/01/11 21:59:36;;;;;;;3.25;1.67;;;;;;;;;;20911328;28;20076;-60
2022/01/11 22:09:40;;;;;;;10.32;5.75;;;;;;;;;;20911114;28;20053;-60
2022/01/11 22:19:45;;;;;;;10.05;4.15;;;;;;;;;;20923638;28;20378;-63
2022/01/11 22:29:48;;;;;;;8.65;4.63;;;;;;;;;;20927709;28;20045;-60
2022/01/11 22:39:50;;;;;;;7.57;3.90;;;;;;;;;;20927994;28;20053;-60
2022/01/11 22:49:51;;;;;;;5.18;2.65;;;;;;;;;;20926047;28;20497;-60
2022/01/11 22:59:54;;;;;;;4.07;2.67;;;;;;;;;;20925536;28;20052;-62
2022/01/11 23:09:57;;;;;;;7.00;4.97;;;;;;;;;;20925123;28;20493;-61
2022/01/11 23:19:59;;;;;;;4.95;3.33;;;;;;;;;;20923057;28;20053;-60
2022/01/11 23:30:01;;;;;;;5.15;3.10;;;;;;;;;;20922470;28;20556;-61
2022/01/11 23:40:31;;;;;;;8.48;2.55;;;;;;;;;;20921338;28;20136;-61
2022/01/11 23:50:25;;;;;;;6.25;3.70;;;;;;;;;;20920635;28;20088;-61
